Maersk Weymouth — VRFS9 — position and weather

sailwx.info

Track history (hours):
 
Tides and Currents Weather Stations Pressure Air Temp Water Temp Dewpoint Dewpoint Depression Visibility Wind Speed Wind Dir Waves Ship Positions

Maersk Weymouth

Last reported at 2017-Feb-19 03:06 UTC. Time now 2017-Feb-23 20:43 UTC.
Position N 26°05' W 079°25'.

Length 175 m; draft 8.2 m.

Type: Cargo ship. MMSI: 477622100.

Date/timePositionNaut miles runAvg speedWind from/ knotsBaromVisibWave heightAir tempDewpointWater temp
2017-Feb-19 03:06N 26°05' W 079°25'915.9
2017-Feb-19 02:33N 26°13' W 079°24'29615.3
2017-Feb-18 07:14N 31°08' W 079°59'1216.8
2017-Feb-18 06:33N 31°17' W 080°06'1616.3
2017-Feb-18 05:33N 31°31' W 080°18'1413.8
2017-Feb-18 04:33N 31°42' W 080°27'10 9.7
2017-Feb-18 03:33N 31°50' W 080°33'9 9.4
2017-Feb-18 02:33N 31°57' W 080°41'1110.5
2017-Feb-18 01:33N 32°02' W 080°51'10 9.8
2017-Feb-18 00:33N 32°05' W 081°03'5 5.2
2017-Feb-17 23:33N 32°07' W 081°08'0 0.0
2017-Feb-17 22:33N 32°07' W 081°08'0 0.0
2017-Feb-17 21:31N 32°07' W 081°08'0 0.0
2017-Feb-17 20:31N 32°07' W 081°08'0 0.0
2017-Feb-17 19:31N 32°07' W 081°08'0 0.0
2017-Feb-17 18:31N 32°07' W 081°08'0 0.0
2017-Feb-17 17:31N 32°07' W 081°08'0 0.0
2017-Feb-17 16:31N 32°07' W 081°08'0 0.0
2017-Feb-17 15:31N 32°07' W 081°08'0 0.0
2017-Feb-17 14:31N 32°07' W 081°08'0 0.0
2017-Feb-17 13:25N 32°07' W 081°08'0 0.0
2017-Feb-17 12:31N 32°07' W 081°08'0 0.3
2017-Feb-17 11:33N 32°07' W 081°08'6 5.6
2017-Feb-17 10:33N 32°05' W 081°02'10 9.7
2017-Feb-17 09:33N 32°02' W 080°51'1311.5
2017-Feb-17 08:24N 31°57' W 080°37'3 4.1
2017-Feb-17 07:33N 31°57' W 080°33'  
2017-Feb-14 15:25N 38°51' W 075°05'1112.9
2017-Feb-14 14:33N 39°02' W 075°09'1313.3
2017-Feb-14 13:34N 39°13' W 075°18'1515.3
2017-Feb-14 12:34N 39°25' W 075°31'1414.2
2017-Feb-14 11:34N 39°39' W 075°33'1212.0
2017-Feb-14 10:33N 39°49' W 075°24'9 9.3
2017-Feb-14 09:33N 39°52' W 075°13'4 4.1
2017-Feb-14 08:33N 39°54' W 075°08'0 0.0
2017-Feb-14 07:33N 39°54' W 075°08'0 0.0
2017-Feb-14 06:33N 39°54' W 075°08'0 0.0
2017-Feb-14 05:33N 39°54' W 075°08'0 0.0
2017-Feb-14 04:33N 39°54' W 075°08'0 0.0
2017-Feb-14 03:33N 39°54' W 075°08'0 0.0
2017-Feb-14 02:33N 39°54' W 075°08'0 0.0
2017-Feb-14 01:33N 39°54' W 075°08'0 0.0
2017-Feb-14 00:33N 39°54' W 075°08'0 0.0
2017-Feb-13 23:33N 39°54' W 075°08'0 0.0
2017-Feb-13 22:33N 39°54' W 075°08'0 0.0
2017-Feb-13 21:33N 39°54' W 075°08'1 1.0
2017-Feb-13 20:33N 39°53' W 075°08'9 9.4
2017-Feb-13 19:33N 39°51' W 075°20'1110.9
2017-Feb-13 18:34N 39°43' W 075°30'1313.1
2017-Feb-13 17:33N 39°30' W 075°33'1514.6
2017-Feb-13 16:33N 39°18' W 075°23'1515.0
2017-Feb-13 15:33N 39°06' W 075°12'140 3.7
2017-Feb-12 01:29N 36°49' W 075°46'9 9.3
2017-Feb-12 00:32N 36°54' W 075°55'1110.9
2017-Feb-11 23:34N 36°59' W 076°07'1110.9
2017-Feb-11 22:33N 36°56' W 076°20'4 4.2
2017-Feb-11 21:33N 36°51' W 076°20'0 0.0
2017-Feb-11 20:33N 36°51' W 076°20'0 0.0
2017-Feb-11 19:33N 36°51' W 076°20'0 0.0
2017-Feb-11 18:33N 36°51' W 076°20'0 0.0
2017-Feb-11 17:33N 36°51' W 076°20'0 0.0
2017-Feb-11 16:33N 36°51' W 076°20'0 0.0
2017-Feb-11 15:33N 36°51' W 076°20'0 0.0
2017-Feb-11 14:33N 36°51' W 076°20'0 0.0
2017-Feb-11 13:33N 36°51' W 076°20'0 0.0
2017-Feb-11 12:33N 36°51' W 076°20'0 0.0
2017-Feb-11 11:33N 36°51' W 076°20'0 0.2
2017-Feb-11 10:34N 36°52' W 076°19'8 7.7
2017-Feb-11 09:33N 36°59' W 076°19'1312.7
2017-Feb-11 08:33N 36°58' W 076°03'9 9.0
2017-Feb-11 07:33N 36°54' W 075°53'  
Track history (hours):
 
Tides and Currents Weather Stations Pressure Air Temp Water Temp Dewpoint Dewpoint Depression Visibility Wind Speed Wind Dir Waves Ship Positions

Maersk Weymouth

Last reported at 2017-Feb-19 03:06 UTC. Time now 2017-Feb-23 20:43 UTC.
Position N 26°05' W 079°25'.

Length 175 m; draft 8.2 m.

Type: Cargo ship. MMSI: 477622100.

Date/timePositionNaut miles runAvg speedWind from/ knotsBaromVisibWave heightAir tempDewpointWater temp
2017-Feb-19 03:06N 26°05' W 079°25'915.9
2017-Feb-19 02:33N 26°13' W 079°24'29615.3
2017-Feb-18 07:14N 31°08' W 079°59'1216.8
2017-Feb-18 06:33N 31°17' W 080°06'1616.3
2017-Feb-18 05:33N 31°31' W 080°18'1413.8
2017-Feb-18 04:33N 31°42' W 080°27'10 9.7
2017-Feb-18 03:33N 31°50' W 080°33'9 9.4
2017-Feb-18 02:33N 31°57' W 080°41'1110.5
2017-Feb-18 01:33N 32°02' W 080°51'10 9.8
2017-Feb-18 00:33N 32°05' W 081°03'5 5.2
2017-Feb-17 23:33N 32°07' W 081°08'0 0.0
2017-Feb-17 22:33N 32°07' W 081°08'0 0.0
2017-Feb-17 21:31N 32°07' W 081°08'0 0.0
2017-Feb-17 20:31N 32°07' W 081°08'0 0.0
2017-Feb-17 19:31N 32°07' W 081°08'0 0.0
2017-Feb-17 18:31N 32°07' W 081°08'0 0.0
2017-Feb-17 17:31N 32°07' W 081°08'0 0.0
2017-Feb-17 16:31N 32°07' W 081°08'0 0.0
2017-Feb-17 15:31N 32°07' W 081°08'0 0.0
2017-Feb-17 14:31N 32°07' W 081°08'0 0.0
2017-Feb-17 13:25N 32°07' W 081°08'0 0.0
2017-Feb-17 12:31N 32°07' W 081°08'0 0.3
2017-Feb-17 11:33N 32°07' W 081°08'6 5.6
2017-Feb-17 10:33N 32°05' W 081°02'10 9.7
2017-Feb-17 09:33N 32°02' W 080°51'1311.5
2017-Feb-17 08:24N 31°57' W 080°37'3 4.1
2017-Feb-17 07:33N 31°57' W 080°33'  
2017-Feb-14 15:25N 38°51' W 075°05'1112.9
2017-Feb-14 14:33N 39°02' W 075°09'1313.3
2017-Feb-14 13:34N 39°13' W 075°18'1515.3
2017-Feb-14 12:34N 39°25' W 075°31'1414.2
2017-Feb-14 11:34N 39°39' W 075°33'1212.0
2017-Feb-14 10:33N 39°49' W 075°24'9 9.3
2017-Feb-14 09:33N 39°52' W 075°13'4 4.1
2017-Feb-14 08:33N 39°54' W 075°08'0 0.0
2017-Feb-14 07:33N 39°54' W 075°08'0 0.0
2017-Feb-14 06:33N 39°54' W 075°08'0 0.0
2017-Feb-14 05:33N 39°54' W 075°08'0 0.0
2017-Feb-14 04:33N 39°54' W 075°08'0 0.0
2017-Feb-14 03:33N 39°54' W 075°08'0 0.0
2017-Feb-14 02:33N 39°54' W 075°08'0 0.0
2017-Feb-14 01:33N 39°54' W 075°08'0 0.0
2017-Feb-14 00:33N 39°54' W 075°08'0 0.0
2017-Feb-13 23:33N 39°54' W 075°08'0 0.0
2017-Feb-13 22:33N 39°54' W 075°08'0 0.0
2017-Feb-13 21:33N 39°54' W 075°08'1 1.0
2017-Feb-13 20:33N 39°53' W 075°08'9 9.4
2017-Feb-13 19:33N 39°51' W 075°20'1110.9
2017-Feb-13 18:34N 39°43' W 075°30'1313.1
2017-Feb-13 17:33N 39°30' W 075°33'1514.6
2017-Feb-13 16:33N 39°18' W 075°23'1515.0
2017-Feb-13 15:33N 39°06' W 075°12'140 3.7
2017-Feb-12 01:29N 36°49' W 075°46'9 9.3
2017-Feb-12 00:32N 36°54' W 075°55'1110.9
2017-Feb-11 23:34N 36°59' W 076°07'1110.9
2017-Feb-11 22:33N 36°56' W 076°20'4 4.2
2017-Feb-11 21:33N 36°51' W 076°20'0 0.0
2017-Feb-11 20:33N 36°51' W 076°20'0 0.0
2017-Feb-11 19:33N 36°51' W 076°20'0 0.0
2017-Feb-11 18:33N 36°51' W 076°20'0 0.0
2017-Feb-11 17:33N 36°51' W 076°20'0 0.0
2017-Feb-11 16:33N 36°51' W 076°20'0 0.0
2017-Feb-11 15:33N 36°51' W 076°20'0 0.0
2017-Feb-11 14:33N 36°51' W 076°20'0 0.0
2017-Feb-11 13:33N 36°51' W 076°20'0 0.0
2017-Feb-11 12:33N 36°51' W 076°20'0 0.0
2017-Feb-11 11:33N 36°51' W 076°20'0 0.2
2017-Feb-11 10:34N 36°52' W 076°19'8 7.7
2017-Feb-11 09:33N 36°59' W 076°19'1312.7
2017-Feb-11 08:33N 36°58' W 076°03'9 9.0
2017-Feb-11 07:33N 36°54' W 075°53'  

Dump ship's entire track history